CYHD

Dryden Regional Airport

Dryden, Ontario, Canada
METAR CYHD 182000Z AUTO 23009KT 9SM SCT012 M01/M02 A2937 RMK SLP969
Observed Flight Rules
Dec-18 @ 20:00 UTC (25 minutes ago) Visual Flight Rules
Wind Visibility Clouds
230° at 9 knots 9 miles
  • Scattered at 1,200' AGL
Temperatures Readings
Current -1°C / 30°F
Dewpoint -2°C / 28°F
Humidity 93%
Altimeter 29.37" Hg
Pressure 996.9 hPa
Elevation 413
METAR CYHD 182000Z AUTO 23009KT 9SM SCT012 M01/M02 A2937 RMK SLP969
Observed Flight Rules
Dec-18 @ 20:00 UTC
(25 minutes ago)
VFR
Wind Visibility
230° at 9 knots 9 miles
Clouds
  • Scattered at 1,200' AGL
Temperature Dewpoint
-1°C / 30°F -2°C / 28°F
Humidity Altimeter Pressure
93% 29.37" Hg 996.9 hPa